Time;durP1;ratioP1;P1;durP2;ratioP2;P2;SDS_P1;SDS_P2;PMS_P1;PMS_P2;Temp;Humidity;BMP_temperature;BMP_pressure;BME280_temperature;BME280_humidity;BME280_pressure;Samples;Min_cycle;Max_cycle;Signal;HPM_P1;HPM_P2
2021/09/06 00:00:43;;;;;;;4.87;1.90;;;;;;;6.23;100.00;101065.11;1637597;86;21611;-63
2021/09/06 00:03:10;;;;;;;6.60;2.40;;;;;;;6.22;100.00;101060.08;1638257;87;21253;-65
2021/09/06 00:05:39;;;;;;;4.17;1.80;;;;;;;6.15;100.00;101064.97;1653779;85;21099;-63
2021/09/06 00:08:06;;;;;;;4.53;2.00;;;;;;;6.14;100.00;101067.22;1625779;87;21088;-64
2021/09/06 00:10:39;;;;;;;4.50;1.82;;;;;;;6.13;100.00;101066.05;1667333;84;21075;-63
2021/09/06 00:13:08;;;;;;;3.95;2.27;;;;;;;6.12;100.00;101068.30;1683586;83;21822;-64
2021/09/06 00:15:36;;;;;;;3.87;1.80;;;;;;;6.11;100.00;101064.08;1684137;85;21083;-63
2021/09/06 00:18:04;;;;;;;4.85;1.87;;;;;;;6.15;100.00;101058.50;1683988;85;21437;-64
2021/09/06 00:20:32;;;;;;;5.47;1.77;;;;;;;6.20;100.00;101058.91;1684037;84;21121;-65
2021/09/06 00:23:00;;;;;;;3.98;1.45;;;;;;;6.30;100.00;101057.63;1682176;85;20964;-65
2021/09/06 00:25:27;;;;;;;3.65;1.95;;;;;;;6.33;100.00;101056.88;1682111;84;21447;-64
2021/09/06 00:27:55;;;;;;;3.60;1.75;;;;;;;6.36;100.00;101059.66;1683762;83;20884;-62
2021/09/06 00:30:22;;;;;;;5.85;2.22;;;;;;;6.29;100.00;101054.70;1670242;84;21000;-64
2021/09/06 00:32:50;;;;;;;4.83;2.40;;;;;;;6.25;100.00;101060.63;1648205;86;21058;-64
2021/09/06 00:35:16;;;;;;;5.53;2.90;;;;;;;6.20;100.00;101052.91;1648060;86;21160;-63
2021/09/06 00:37:45;;;;;;;5.87;2.77;;;;;;;6.12;100.00;101061.83;1648424;86;21658;-63
2021/09/06 00:40:12;;;;;;;5.72;2.67;;;;;;;6.03;100.00;101056.51;1648158;86;21844;-64
2021/09/06 00:42:41;;;;;;;5.10;2.20;;;;;;;5.94;100.00;101059.06;1647986;86;21500;-64
2021/09/06 00:45:09;;;;;;;5.60;2.25;;;;;;;5.92;100.00;101054.48;1648469;86;21137;-64
2021/09/06 00:47:36;;;;;;;5.10;2.40;;;;;;;5.91;100.00;101058.84;1648805;86;20940;-63
2021/09/06 00:50:06;;;;;;;3.85;2.20;;;;;;;5.82;100.00;101062.20;1649015;86;21020;-64
2021/09/06 00:52:40;;;;;;;5.30;2.58;;;;;;;5.81;100.00;101057.52;1636107;86;21154;-64
2021/09/06 00:55:08;;;;;;;5.28;2.30;;;;;;;5.83;100.00;101057.37;1643278;86;21021;-63
2021/09/06 00:57:35;;;;;;;4.67;2.25;;;;;;;5.86;100.00;101062.28;1602763;88;21100;-64
2021/09/06 01:00:05;;;;;;;5.92;2.27;;;;;;;5.96;100.00;101057.17;1643872;86;20915;-63
2021/09/06 01:02:33;;;;;;;5.87;2.55;;;;;;;5.97;100.00;101065.27;1619191;88;21031;-64
2021/09/06 01:05:01;;;;;;;4.83;2.00;;;;;;;5.91;100.00;101061.88;1636331;87;22169;-63
2021/09/06 01:07:31;;;;;;;5.20;2.87;;;;;;;5.83;100.00;101067.72;1644227;86;21060;-65
2021/09/06 01:10:11;;;;;;;5.15;2.75;;;;;;;5.80;100.00;101070.11;1615351;88;21055;-65
2021/09/06 01:12:43;;;;;;;5.30;2.45;;;;;;;5.81;100.00;101069.63;1630110;86;21025;-65
2021/09/06 01:15:11;;;;;;;5.62;2.47;;;;;;;5.71;100.00;101072.66;1645303;86;21676;-65
2021/09/06 01:17:39;;;;;;;5.42;2.33;;;;;;;5.66;100.00;101068.36;1616146;87;21149;-65
2021/09/06 01:20:09;;;;;;;6.08;2.05;;;;;;;5.67;100.00;101071.28;1647882;86;21037;-66
2021/09/06 01:22:37;;;;;;;5.15;1.95;;;;;;;5.68;100.00;101062.09;1594609;88;21003;-66
2021/09/06 01:25:15;;;;;;;4.35;1.90;;;;;;;5.88;100.00;101060.87;1644674;86;21517;-65
2021/09/06 01:27:43;;;;;;;3.90;2.08;;;;;;;6.03;100.00;101060.87;1648533;86;20959;-65
2021/09/06 01:30:12;;;;;;;4.40;1.92;;;;;;;6.21;100.00;101058.42;1619439;87;21114;-65
2021/09/06 01:32:39;;;;;;;4.20;1.85;;;;;;;6.36;100.00;101066.12;1628563;87;21058;-65
2021/09/06 01:35:07;;;;;;;7.33;2.85;;;;;;;6.47;100.00;101063.41;1628603;86;21465;-65
2021/09/06 01:37:34;;;;;;;5.92;2.72;;;;;;;6.42;100.00;101066.90;1636953;86;20922;-65
2021/09/06 01:40:04;;;;;;;6.33;2.62;;;;;;;6.33;100.00;101065.13;1657120;85;21092;-67
2021/09/06 01:42:31;;;;;;;5.67;2.50;;;;;;;6.25;100.00;101062.38;1626840;86;21155;-64
2021/09/06 01:45:02;;;;;;;6.37;2.33;;;;;;;6.11;100.00;101065.38;1608627;87;20928;-64
2021/09/06 01:47:30;;;;;;;5.70;2.95;;;;;;;5.91;100.00;101058.84;1629381;87;21024;-65
2021/09/06 01:49:57;;;;;;;5.50;2.87;;;;;;;5.98;100.00;101061.73;1629732;87;21117;-66
2021/09/06 01:52:25;;;;;;;5.37;2.20;;;;;;;6.01;100.00;101063.58;1625443;86;20989;-64
2021/09/06 01:54:54;;;;;;;6.50;2.50;;;;;;;5.95;100.00;101066.71;1630260;86;21517;-65
2021/09/06 01:57:20;;;;;;;7.70;2.77;;;;;;;5.85;100.00;101065.83;1626497;86;20972;-65
2021/09/06 01:59:47;;;;;;;5.90;2.98;;;;;;;5.79;100.00;101068.45;1628837;86;21166;-66
2021/09/06 02:02:14;;;;;;;5.83;2.85;;;;;;;5.71;100.00;101067.48;1607869;87;21462;-64
2021/09/06 02:04:42;;;;;;;6.12;3.40;;;;;;;5.61;100.00;101068.28;1630398;86;21036;-64
2021/09/06 02:07:09;;;;;;;6.90;2.80;;;;;;;5.50;100.00;101065.79;1627179;87;21177;-65
2021/09/06 02:09:35;;;;;;;6.62;3.22;;;;;;;5.48;100.00;101061.69;1615218;87;21050;-64
2021/09/06 02:12:04;;;;;;;7.05;3.12;;;;;;;5.37;100.00;101065.98;1657243;86;21096;-65
2021/09/06 02:14:34;;;;;;;5.62;3.10;;;;;;;5.37;100.00;101068.58;1632594;86;21037;-64
2021/09/06 02:17:02;;;;;;;6.60;2.75;;;;;;;5.34;100.00;101065.42;1614049;86;21039;-64
2021/09/06 02:19:33;;;;;;;5.92;2.95;;;;;;;5.29;100.00;101063.71;1653397;86;21159;-64
2021/09/06 02:21:59;;;;;;;6.17;2.83;;;;;;;5.22;100.00;101070.34;1672509;84;21035;-65
2021/09/06 02:24:28;;;;;;;8.40;2.75;;;;;;;5.13;100.00;101073.23;1657515;86;21118;-64
2021/09/06 02:26:57;;;;;;;4.72;2.58;;;;;;;5.05;100.00;101076.45;1657573;86;21027;-63
2021/09/06 02:29:24;;;;;;;5.50;2.52;;;;;;;5.05;100.00;101080.32;1606473;87;21125;-67
2021/09/06 02:31:52;;;;;;;5.40;2.60;;;;;;;5.02;100.00;101079.28;1656445;85;21188;-66
2021/09/06 02:34:29;;;;;;;6.47;3.15;;;;;;;5.02;100.00;101083.16;1658687;86;21086;-68
2021/09/06 02:36:56;;;;;;;7.08;3.27;;;;;;;4.87;100.00;101085.23;1634318;87;21017;-65
2021/09/06 02:39:24;;;;;;;6.35;2.90;;;;;;;4.90;100.00;101090.63;1632858;87;21577;-66
2021/09/06 02:41:51;;;;;;;6.72;3.37;;;;;;;4.96;100.00;101086.23;1632746;87;21071;-65
2021/09/06 02:44:18;;;;;;;6.42;2.90;;;;;;;4.80;100.00;101095.71;1632235;87;22313;-65
2021/09/06 02:46:45;;;;;;;7.50;3.22;;;;;;;4.79;100.00;101095.84;1633225;87;22415;-64
2021/09/06 02:49:13;;;;;;;6.25;2.75;;;;;;;4.97;100.00;101102.10;1634038;87;21055;-65
2021/09/06 02:51:39;;;;;;;7.12;2.98;;;;;;;4.99;100.00;101105.84;1634155;87;21087;-66
2021/09/06 02:54:07;;;;;;;5.95;3.25;;;;;;;4.99;100.00;101114.41;1631521;87;20952;-66
2021/09/06 02:56:35;;;;;;;6.45;3.20;;;;;;;4.94;100.00;101110.58;1620390;87;21156;-64
2021/09/06 02:59:02;;;;;;;7.10;2.92;;;;;;;4.88;100.00;101112.69;1659851;86;21016;-64
2021/09/06 03:01:29;;;;;;;7.75;3.70;;;;;;;4.86;100.00;101115.08;1651223;81;21142;-67
2021/09/06 03:03:58;;;;;;;9.15;5.70;;;;;;;4.85;100.00;101120.72;1676243;83;21150;-66
2021/09/06 03:06:25;;;;;;;13.28;8.15;;;;;;;4.88;100.00;101120.44;1689581;82;21087;-68
2021/09/06 03:08:52;;;;;;;11.78;8.08;;;;;;;4.86;100.00;101126.22;1689929;83;21229;-67
2021/09/06 03:11:24;;;;;;;10.90;7.12;;;;;;;4.87;100.00;101125.75;1690905;83;20977;-67
2021/09/06 03:13:53;;;;;;;10.18;6.10;;;;;;;4.91;100.00;101124.55;1691107;83;21502;-64
2021/09/06 03:16:21;;;;;;;8.73;5.03;;;;;;;5.00;100.00;101129.43;1690538;83;21573;-68
2021/09/06 03:18:49;;;;;;;9.05;3.72;;;;;;;5.07;100.00;101132.68;1691597;83;21145;-66
2021/09/06 03:21:18;;;;;;;7.95;4.75;;;;;;;5.32;100.00;101131.48;1691900;83;21157;-67
2021/09/06 03:23:45;;;;;;;5.87;3.50;;;;;;;5.69;100.00;101139.24;1691700;83;20897;-67
2021/09/06 03:26:17;;;;;;;7.00;3.72;;;;;;;6.32;100.00;101142.45;1691416;83;21079;-64
2021/09/06 03:28:43;;;;;;;7.90;3.27;;;;;;;7.19;100.00;101139.05;1691960;83;20973;-66
2021/09/06 03:31:12;;;;;;;5.65;2.80;;;;;;;8.26;100.00;101136.88;1692467;83;20957;-66
2021/09/06 03:33:39;;;;;;;5.45;3.33;;;;;;;9.35;100.00;101130.98;1690998;83;21161;-64
2021/09/06 03:36:06;;;;;;;7.75;3.62;;;;;;;10.47;100.00;101132.09;1691491;83;21606;-67
2021/09/06 03:38:33;;;;;;;8.33;3.83;;;;;;;11.59;100.00;101128.41;1695581;83;21065;-67
2021/09/06 03:41:00;;;;;;;7.10;3.30;;;;;;;12.76;100.00;101126.66;1698460;83;21796;-64
2021/09/06 03:43:29;;;;;;;5.70;3.10;;;;;;;14.71;100.00;101118.83;1692678;83;21781;-65
2021/09/06 03:45:56;;;;;;;6.03;3.20;;;;;;;15.57;100.00;101123.36;1662165;83;21438;-64
2021/09/06 03:48:22;;;;;;;5.93;3.30;;;;;;;15.57;100.00;101123.36;1683467;83;21549;-63
2021/09/06 03:50:50;;;;;;;9.40;3.53;;;;;;;16.51;100.00;101116.08;1697787;83;21009;-65
2021/09/06 03:53:17;;;;;;;6.00;3.47;;;;;;;17.35;97.98;101120.73;1695831;83;21026;-65
2021/09/06 03:55:44;;;;;;;5.50;3.60;;;;;;;17.99;78.04;101116.45;1698696;83;21501;-64
2021/09/06 03:58:11;;;;;;;7.47;4.13;;;;;;;18.50;66.49;101122.14;1697404;84;21233;-64
2021/09/06 04:00:39;;;;;;;10.30;5.10;;;;;;;19.06;61.61;101130.56;1696171;83;21032;-66
2021/09/06 04:03:07;;;;;;;9.10;5.60;;;;;;;19.79;58.78;101120.53;1694462;83;21430;-64
2021/09/06 04:05:33;;;;;;;7.80;4.13;;;;;;;20.65;52.06;101121.99;1690536;83;21081;-66
2021/09/06 04:08:03;;;;;;;6.70;3.70;;;;;;;21.08;49.08;101122.17;1697492;83;21118;-65
2021/09/06 04:10:31;;;;;;;6.97;3.40;;;;;;;21.44;46.57;101128.29;1697398;83;21168;-64
2021/09/06 04:12:59;;;;;;;6.90;3.37;;;;;;;21.64;43.99;101131.06;1697766;82;21467;-63
2021/09/06 04:15:26;;;;;;;6.30;3.57;;;;;;;22.02;42.58;101135.25;1694960;83;21546;-64
2021/09/06 04:17:53;;;;;;;6.33;3.57;;;;;;;22.41;41.43;101127.45;1691486;83;22439;-65
2021/09/06 04:20:20;;;;;;;6.97;4.30;;;;;;;22.85;39.18;101135.61;1699472;83;21099;-65
2021/09/06 04:22:48;;;;;;;7.43;4.17;;;;;;;23.21;38.09;101138.27;1700870;83;21578;-68
2021/09/06 04:25:16;;;;;;;7.47;5.50;;;;;;;23.44;36.35;101132.44;1696694;83;21527;-64
2021/09/06 04:27:44;;;;;;;8.47;4.73;;;;;;;23.54;35.96;101134.70;1698886;82;21105;-65
2021/09/06 04:30:13;;;;;;;8.30;5.22;;;;;;;23.94;35.61;101140.26;1696704;83;20957;-65
2021/09/06 04:32:40;;;;;;;6.62;4.50;;;;;;;24.42;34.65;101131.93;1693065;82;21040;-67
2021/09/06 04:35:07;;;;;;;6.05;4.30;;;;;;;24.93;34.03;101126.98;1690786;83;22686;-68
2021/09/06 04:37:34;;;;;;;7.92;4.83;;;;;;;25.53;33.45;101131.56;1699474;83;20981;-67
2021/09/06 04:40:05;;;;;;;9.53;5.08;;;;;;;25.84;32.96;101130.38;1696610;83;21538;-69
2021/09/06 04:42:33;;;;;;;7.17;4.72;;;;;;;26.22;32.03;101130.44;1681240;84;20923;-69
2021/09/06 04:45:00;;;;;;;8.25;5.00;;;;;;;26.48;31.50;101129.94;1665787;83;21020;-69
2021/09/06 04:47:27;;;;;;;7.33;4.87;;;;;;;26.71;30.70;101128.58;1677733;84;21537;-69
2021/09/06 04:49:53;;;;;;;8.08;4.92;;;;;;;26.79;30.12;101129.91;1684396;83;20973;-68
2021/09/06 04:52:21;;;;;;;8.93;5.72;;;;;;;26.96;30.30;101137.08;1707385;83;20980;-69
2021/09/06 04:54:49;;;;;;;8.03;4.78;;;;;;;27.18;29.24;101132.78;1701053;83;21051;-70
2021/09/06 04:57:17;;;;;;;9.33;6.67;;;;;;;27.31;29.04;101131.39;1702527;83;21048;-69
2021/09/06 04:59:47;;;;;;;11.55;6.70;;;;;;;27.18;28.56;101130.10;1695629;83;21017;-70
2021/09/06 05:02:13;;;;;;;8.28;6.22;;;;;;;26.96;28.97;101134.95;1685484;84;21021;-68
2021/09/06 05:04:40;;;;;;;8.85;5.85;;;;;;;27.03;29.19;101134.93;1683886;83;21101;-70
2021/09/06 05:07:08;;;;;;;8.55;6.17;;;;;;;27.23;29.05;101131.41;1700308;83;21033;-69
2021/09/06 05:09:35;;;;;;;4.87;3.30;;;;;;;27.52;29.04;101132.11;1700568;83;20954;-69
2021/09/06 05:12:03;;;;;;;4.35;3.35;;;;;;;27.85;28.87;101134.11;1698955;83;21892;-69
2021/09/06 05:14:32;;;;;;;4.67;3.20;;;;;;;28.10;27.95;101137.14;1698079;83;21084;-69
2021/09/06 05:17:00;;;;;;;11.03;4.35;;;;;;;27.77;28.18;101136.55;1695281;83;21863;-70
2021/09/06 05:19:29;;;;;;;4.87;3.20;;;;;;;27.52;28.66;101135.59;1695613;83;21585;-66
2021/09/06 05:21:56;;;;;;;5.30;3.17;;;;;;;27.50;28.89;101136.39;1697923;83;20947;-66
2021/09/06 05:24:23;;;;;;;4.35;3.22;;;;;;;27.49;28.71;101136.67;1698202;83;21066;-66
2021/09/06 05:26:50;;;;;;;7.30;3.00;;;;;;;27.19;28.79;101137.59;1699206;83;20943;-66
2021/09/06 05:29:16;;;;;;;6.28;4.25;;;;;;;26.71;29.49;101139.79;1699979;83;21064;-67
2021/09/06 05:31:45;;;;;;;6.92;4.05;;;;;;;26.01;29.66;101135.47;1696169;83;20986;-66
2021/09/06 05:34:12;;;;;;;7.85;4.08;;;;;;;24.74;31.10;101142.59;1692009;83;20973;-66
2021/09/06 05:36:40;;;;;;;6.20;3.80;;;;;;;23.50;32.73;101158.87;1693777;83;21097;-67
2021/09/06 05:39:07;;;;;;;8.53;4.27;;;;;;;22.31;34.48;101163.14;1699148;83;21092;-68
2021/09/06 05:41:41;;;;;;;7.00;3.83;;;;;;;21.52;36.19;101173.02;1680552;83;21523;-67
2021/09/06 05:44:09;;;;;;;5.97;3.83;;;;;;;21.04;37.89;101168.73;1699499;83;21051;-67
2021/09/06 05:46:36;;;;;;;7.30;4.13;;;;;;;20.77;39.01;101167.56;1697371;83;21077;-68
2021/09/06 05:49:04;;;;;;;7.93;4.07;;;;;;;20.64;39.68;101170.69;1698095;83;21629;-68
2021/09/06 05:51:33;;;;;;;9.43;4.37;;;;;;;20.62;40.71;101173.30;1698319;83;21578;-67
2021/09/06 05:54:01;;;;;;;7.40;4.47;;;;;;;20.59;41.14;101175.87;1670406;83;20974;-68
2021/09/06 05:56:27;;;;;;;9.03;4.73;;;;;;;20.74;41.54;101181.27;1698851;83;21490;-67
2021/09/06 05:58:55;;;;;;;9.60;4.87;;;;;;;20.86;40.80;101180.76;1699635;83;22539;-67
2021/09/06 06:01:23;;;;;;;9.60;4.87;;;;;;;20.78;41.71;101181.09;1695207;83;21207;-67
2021/09/06 06:03:50;;;;;;;8.53;4.70;;;;;;;20.72;41.70;101176.70;1652712;85;21025;-67
2021/09/06 06:06:18;;;;;;;7.13;4.00;;;;;;;20.71;42.24;101179.87;1651262;85;21102;-67
2021/09/06 06:08:48;;;;;;;7.30;4.08;;;;;;;20.78;42.59;101181.90;1646917;85;21012;-67
2021/09/06 06:11:17;;;;;;;8.57;4.47;;;;;;;20.92;42.36;101179.86;1656503;85;22325;-68
2021/09/06 06:13:45;;;;;;;10.60;4.40;;;;;;;21.03;42.64;101179.06;1649948;85;22266;-67
2021/09/06 06:16:13;;;;;;;9.47;4.73;;;;;;;21.19;42.36;101180.73;1651261;85;21600;-67
2021/09/06 06:18:40;;;;;;;8.40;4.70;;;;;;;20.99;42.03;101187.19;1647111;85;21040;-67
2021/09/06 06:21:08;;;;;;;6.93;4.07;;;;;;;20.83;43.02;101185.98;1652377;85;21101;-67
2021/09/06 06:23:52;;;;;;;6.93;3.77;;;;;;;21.02;42.85;101185.90;1645935;85;21089;-67
2021/09/06 06:26:23;;;;;;;7.27;4.17;;;;;;;21.51;42.59;101189.16;1652526;84;21157;-65
2021/09/06 06:28:51;;;;;;;9.63;5.13;;;;;;;22.00;41.45;101186.97;1650034;84;21160;-66
2021/09/06 06:31:18;;;;;;;6.67;4.00;;;;;;;22.67;40.50;101177.84;1647425;85;21090;-70
2021/09/06 06:33:45;;;;;;;6.47;3.97;;;;;;;23.49;39.30;101181.22;1652525;85;21052;-68
2021/09/06 06:36:14;;;;;;;8.67;4.07;;;;;;;24.08;37.42;101183.80;1653480;85;20954;-68
2021/09/06 06:38:41;;;;;;;7.00;4.03;;;;;;;24.12;37.22;101183.57;1651979;85;21148;-66
2021/09/06 06:41:09;;;;;;;5.10;3.98;;;;;;;24.47;37.18;101184.47;1653369;85;21555;-67
2021/09/06 06:43:37;;;;;;;6.85;4.55;;;;;;;25.13;35.73;101176.22;1642769;85;21022;-67
2021/09/06 06:46:05;;;;;;;4.28;2.65;;;;;;;25.74;34.71;101180.52;1649326;85;21077;-67
2021/09/06 06:48:32;;;;;;;4.30;2.25;;;;;;;26.33;32.85;101175.32;1650621;85;21040;-68
2021/09/06 06:50:58;;;;;;;4.65;2.45;;;;;;;26.87;31.16;101178.31;1649357;85;22594;-65
2021/09/06 06:53:25;;;;;;;4.17;2.20;;;;;;;27.28;30.10;101183.62;1652656;85;21558;-66
2021/09/06 06:55:52;;;;;;;2.85;2.10;;;;;;;27.76;28.73;101178.63;1651508;85;21551;-67
2021/09/06 06:58:20;;;;;;;3.25;2.15;;;;;;;28.16;27.28;101183.50;1652383;85;21835;-68
2021/09/06 07:00:46;;;;;;;2.98;1.90;;;;;;;28.33;26.12;101177.73;1651323;85;21037;-67
2021/09/06 07:03:15;;;;;;;3.40;1.70;;;;;;;28.49;25.32;101178.45;1678595;84;21161;-68
2021/09/06 07:05:42;;;;;;;2.22;1.55;;;;;;;28.27;24.98;101182.89;1680666;84;20956;-66
2021/09/06 07:08:10;;;;;;;3.30;1.70;;;;;;;28.11;25.45;101187.56;1693908;83;21081;-68
2021/09/06 07:10:38;;;;;;;2.67;1.70;;;;;;;28.32;24.67;101184.19;1675547;83;21496;-68
2021/09/06 07:13:05;;;;;;;2.92;1.90;;;;;;;28.44;24.11;101184.66;1667952;84;21604;-66
2021/09/06 07:15:33;;;;;;;2.60;1.70;;;;;;;28.64;24.31;101178.34;1677915;83;21009;-67
2021/09/06 07:18:01;;;;;;;2.58;1.60;;;;;;;28.98;24.73;101177.50;1681411;83;21018;-67
2021/09/06 07:20:29;;;;;;;2.70;1.50;;;;;;;29.39;23.97;101178.41;1679284;83;21018;-68
2021/09/06 07:22:57;;;;;;;3.05;1.57;;;;;;;29.57;24.17;101180.33;1675315;83;21587;-67
2021/09/06 07:25:25;;;;;;;7.42;1.90;;;;;;;29.67;23.45;101169.50;1684270;83;21094;-67
2021/09/06 07:27:52;;;;;;;3.62;1.50;;;;;;;29.77;23.62;101176.05;1672561;83;21859;-66
2021/09/06 07:30:20;;;;;;;1.30;0.90;;;;;;;29.96;22.79;101173.92;1682735;83;21554;-65
2021/09/06 07:32:47;;;;;;;2.00;1.37;;;;;;;30.05;21.56;101174.33;1659465;85;21085;-66
2021/09/06 07:35:14;;;;;;;1.80;1.40;;;;;;;29.94;22.01;101177.47;1688717;83;21094;-67
2021/09/06 07:37:41;;;;;;;1.42;0.98;;;;;;;30.07;22.07;101182.09;1684539;83;20955;-67
2021/09/06 07:40:11;;;;;;;2.27;1.27;;;;;;;30.29;21.12;101175.60;1677250;83;22584;-67
2021/09/06 07:42:39;;;;;;;2.02;1.40;;;;;;;30.28;21.70;101180.73;1672916;83;21631;-67
2021/09/06 07:45:08;;;;;;;3.90;1.47;;;;;;;30.37;21.89;101176.03;1678159;83;21350;-66
2021/09/06 07:47:36;;;;;;;2.83;1.50;;;;;;;30.40;22.09;101176.80;1679074;83;21048;-66
2021/09/06 07:50:06;;;;;;;2.17;1.62;;;;;;;30.42;22.25;101172.73;1668758;83;21652;-68
2021/09/06 07:52:35;;;;;;;2.17;1.37;;;;;;;30.41;22.49;101180.52;1681709;83;21120;-67
2021/09/06 07:55:06;;;;;;;2.40;1.00;;;;;;;30.42;22.18;101183.48;1687103;83;21096;-69
2021/09/06 07:57:33;;;;;;;2.17;1.20;;;;;;;30.54;21.87;101178.98;1677798;83;21521;-67
2021/09/06 08:00:00;;;;;;;2.25;1.42;;;;;;;30.72;21.92;101174.10;1674877;83;21098;-67
2021/09/06 08:02:27;;;;;;;2.30;1.20;;;;;;;30.87;21.79;101171.69;1687055;83;21498;-67
2021/09/06 08:04:53;;;;;;;2.10;1.20;;;;;;;31.02;20.86;101174.09;1694128;84;21170;-66
2021/09/06 08:07:20;;;;;;;3.50;1.20;;;;;;;30.84;20.39;101176.86;1693736;83;20998;-67
2021/09/06 08:09:47;;;;;;;1.60;1.30;;;;;;;30.74;20.51;101169.23;1694589;83;21476;-68
2021/09/06 08:12:13;;;;;;;1.92;1.15;;;;;;;30.98;20.73;101166.92;1692992;84;21044;-69
2021/09/06 08:14:41;;;;;;;2.20;1.32;;;;;;;31.20;20.43;101162.98;1690747;83;21070;-67
2021/09/06 08:17:11;;;;;;;1.82;1.10;;;;;;;31.38;20.41;101161.88;1691694;84;20962;-67
2021/09/06 08:19:38;;;;;;;1.37;0.93;;;;;;;31.31;20.50;101162.83;1685450;83;21069;-67
2021/09/06 08:22:05;;;;;;;3.70;1.35;;;;;;;31.28;20.59;101155.30;1692778;83;21113;-68
2021/09/06 08:24:32;;;;;;;1.85;1.30;;;;;;;31.33;19.64;101159.27;1692502;83;21144;-67
2021/09/06 08:27:00;;;;;;;1.70;1.20;;;;;;;30.86;19.96;101157.19;1692713;83;22445;-67
2021/09/06 08:29:27;;;;;;;1.62;1.12;;;;;;;30.59;20.55;101151.98;1690008;84;21158;-67
2021/09/06 08:31:54;;;;;;;2.92;1.50;;;;;;;30.68;20.55;101154.23;1700549;82;21108;-67
2021/09/06 08:34:21;;;;;;;1.77;1.15;;;;;;;30.82;20.55;101151.60;1673691;82;21574;-66
2021/09/06 08:36:50;;;;;;;2.75;1.60;;;;;;;30.85;20.30;101150.22;1704366;82;21127;-67
2021/09/06 08:39:17;;;;;;;1.80;1.30;;;;;;;30.71;20.05;101145.57;1684278;84;21528;-66
2021/09/06 08:41:44;;;;;;;3.05;1.50;;;;;;;30.28;20.74;101139.05;1678218;83;21881;-66
2021/09/06 08:44:12;;;;;;;2.42;1.22;;;;;;;30.21;21.22;101135.14;1704382;82;20901;-69
2021/09/06 08:46:39;;;;;;;2.52;1.20;;;;;;;30.26;20.86;101141.77;1676759;83;21628;-67
2021/09/06 08:49:06;;;;;;;2.52;1.20;;;;;;;30.05;21.07;101140.73;1662633;84;21026;-66
2021/09/06 08:51:33;;;;;;;1.77;1.12;;;;;;;29.85;21.24;101142.91;1684595;83;21139;-67
2021/09/06 08:54:01;;;;;;;2.02;1.10;;;;;;;30.03;21.09;101144.78;1683668;83;21170;-67
2021/09/06 08:56:31;;;;;;;1.82;1.20;;;;;;;30.21;20.48;101137.28;1691718;84;21025;-68
2021/09/06 08:58:59;;;;;;;1.40;0.85;;;;;;;30.20;20.30;101133.00;1691027;83;21586;-66
2021/09/06 09:01:43;;;;;;;1.70;1.12;;;;;;;29.70;21.04;101133.98;1690830;83;21089;-67
2021/09/06 09:04:28;;;;;;;1.35;0.93;;;;;;;29.72;21.19;101130.45;1627605;87;21293;-68
2021/09/06 09:07:15;;;;;;;2.22;1.27;;;;;;;29.85;20.33;101139.66;1577616;88;21520;-67
2021/09/06 09:09:47;;;;;;;1.90;1.00;;;;;;;29.45;20.15;101129.71;1541596;88;21352;-67
2021/09/06 09:12:34;;;;;;;1.82;1.10;;;;;;;28.79;21.32;101130.42;1634357;83;21148;-67
2021/09/06 09:15:03;;;;;;;2.30;1.10;;;;;;;28.73;21.52;101124.87;1694320;83;20991;-67
2021/09/06 09:17:36;;;;;;;2.35;1.17;;;;;;;28.86;20.66;101126.87;1704330;83;20975;-66
2021/09/06 09:20:12;;;;;;;2.52;1.00;;;;;;;28.65;20.93;101120.12;1696213;83;22377;-67
2021/09/06 09:22:43;;;;;;;1.57;0.98;;;;;;;28.82;20.83;101125.30;1704902;83;21501;-67
2021/09/06 09:25:15;;;;;;;2.27;1.30;;;;;;;29.08;20.38;101120.48;1688200;82;21041;-67
2021/09/06 09:27:45;;;;;;;2.20;0.95;;;;;;;28.77;21.27;101116.51;1677549;83;21691;-68
2021/09/06 09:30:28;;;;;;;3.15;1.10;;;;;;;28.84;21.31;101121.80;1702411;82;21127;-67
2021/09/06 09:33:12;;;;;;;2.87;1.10;;;;;;;29.06;20.85;101121.87;1699160;82;21648;-68
2021/09/06 09:35:49;;;;;;;1.75;0.90;;;;;;;29.12;20.43;101116.69;1683987;82;21003;-67
2021/09/06 09:38:16;;;;;;;1.30;0.80;;;;;;;29.12;20.85;101119.37;1695664;83;21561;-69
2021/09/06 09:40:46;;;;;;;2.15;0.80;;;;;;;29.24;20.28;101117.07;1694374;83;21507;-69
2021/09/06 09:43:14;;;;;;;2.90;1.32;;;;;;;29.52;20.32;101116.73;1696785;83;21195;-69
2021/09/06 09:45:41;;;;;;;1.70;0.90;;;;;;;29.69;19.68;101117.59;1697823;83;22119;-67
2021/09/06 09:48:11;;;;;;;1.30;0.90;;;;;;;29.72;19.92;101118.91;1674192;84;21257;-67
2021/09/06 09:50:38;;;;;;;1.52;0.80;;;;;;;29.95;19.24;101111.84;1681864;83;21018;-66
2021/09/06 09:53:06;;;;;;;1.77;0.90;;;;;;;29.90;18.41;101107.91;1692485;83;21088;-66
2021/09/06 09:55:34;;;;;;;1.52;0.75;;;;;;;29.39;19.07;101112.05;1695091;83;20977;-66
2021/09/06 09:58:02;;;;;;;1.40;1.07;;;;;;;28.71;19.33;101113.06;1694480;83;21116;-67
2021/09/06 10:00:29;;;;;;;2.00;1.10;;;;;;;28.50;20.38;101121.86;1694016;83;21041;-69
2021/09/06 10:02:58;;;;;;;2.95;0.93;;;;;;;28.80;20.61;101112.72;1689236;83;21150;-67
2021/09/06 10:05:30;;;;;;;1.42;1.07;;;;;;;28.97;20.26;101110.12;1691224;83;21337;-66
2021/09/06 10:07:58;;;;;;;2.75;1.00;;;;;;;29.01;20.79;101113.86;1685835;83;21564;-68
2021/09/06 10:10:26;;;;;;;1.80;1.00;;;;;;;29.03;19.98;101113.05;1691617;84;20953;-68
2021/09/06 10:13:09;;;;;;;1.55;0.90;;;;;;;28.73;20.46;101109.56;1695772;83;20911;-66
2021/09/06 10:15:39;;;;;;;1.25;0.90;;;;;;;28.21;20.37;101115.64;1690082;83;20894;-68
2021/09/06 10:18:21;;;;;;;2.10;1.07;;;;;;;27.65;21.29;101119.45;1693101;83;21073;-68
2021/09/06 10:20:50;;;;;;;1.60;0.90;;;;;;;27.30;21.87;101125.77;1689344;83;21382;-65
2021/09/06 10:23:19;;;;;;;2.23;1.10;;;;;;;27.07;21.96;101125.28;1687676;83;21145;-63
2021/09/06 10:25:49;;;;;;;2.03;0.90;;;;;;;26.82;22.18;101119.47;1700519;82;21083;-66
2021/09/06 10:28:16;;;;;;;3.17;1.00;;;;;;;26.78;23.41;101117.05;1689924;83;20945;-63
2021/09/06 10:30:50;;;;;;;2.00;0.90;;;;;;;26.97;23.23;101115.14;1687380;83;21422;-64
2021/09/06 10:33:32;;;;;;;1.97;0.80;;;;;;;27.16;23.24;101120.19;1686590;83;21080;-68
2021/09/06 10:36:12;;;;;;;;;;;;;;;27.36;23.38;101116.66;1688189;83;21813;-65
2021/09/06 10:38:44;;;;;;;1.80;1.00;;;;;;;27.56;22.39;101115.75;1691667;83;20215;-63
2021/09/06 10:41:17;;;;;;;2.20;1.03;;;;;;;27.48;22.63;101117.67;1704025;83;21003;-65
2021/09/06 10:44:01;;;;;;;2.50;1.03;;;;;;;27.35;22.26;101115.86;1684934;83;21020;-65
2021/09/06 10:46:29;;;;;;;1.77;0.87;;;;;;;27.22;22.23;101122.33;1704067;82;21285;-65
2021/09/06 10:49:03;;;;;;;1.73;0.90;;;;;;;26.97;22.19;101123.96;1686313;83;21149;-64
2021/09/06 10:51:33;;;;;;;2.43;1.00;;;;;;;26.61;22.71;101122.70;1701018;82;21027;-64
2021/09/06 10:54:03;;;;;;;1.80;0.97;;;;;;;26.25;23.22;101121.86;1672037;83;21413;-65
2021/09/06 10:56:31;;;;;;;1.27;0.75;;;;;;;25.92;23.76;101120.50;1679705;83;21095;-64
2021/09/06 10:59:00;;;;;;;1.73;0.93;;;;;;;25.75;23.94;101119.89;1686797;83;20926;-63
2021/09/06 11:01:27;;;;;;;5.37;1.20;;;;;;;25.58;23.83;101118.78;1688013;83;21144;-64
2021/09/06 11:03:55;;;;;;;4.17;1.17;;;;;;;25.36;24.17;101117.63;1689771;83;21012;-62
2021/09/06 11:06:25;;;;;;;4.87;2.17;;;;;;;25.03;24.38;101118.76;1696444;83;21010;-64
2021/09/06 11:08:56;;;;;;;6.62;2.58;;;;;;;24.79;24.64;101117.82;1694428;83;21026;-66
2021/09/06 11:11:31;;;;;;;5.73;3.43;;;;;;;24.45;25.03;101120.77;1692385;83;21035;-65
2021/09/06 11:14:00;;;;;;;3.43;1.40;;;;;;;23.98;25.68;101119.23;1697226;83;21387;-65
2021/09/06 11:16:38;;;;;;;6.00;2.13;;;;;;;23.81;25.50;101116.67;1693380;83;21629;-64
2021/09/06 11:19:14;;;;;;;4.17;2.30;;;;;;;23.73;25.85;101114.45;1690760;83;20958;-64
2021/09/06 11:21:42;;;;;;;3.10;1.57;;;;;;;23.77;26.29;101112.38;1690401;83;21105;-64
2021/09/06 11:24:10;;;;;;;10.17;6.87;;;;;;;24.02;26.12;101107.84;1692038;83;20933;-64
2021/09/06 11:26:38;;;;;;;5.93;3.23;;;;;;;24.46;25.94;101103.71;1671184;83;21102;-65
2021/09/06 11:29:05;;;;;;;2.50;1.30;;;;;;;24.92;25.79;101100.02;1644309;84;21079;-65
2021/09/06 11:31:34;;;;;;;8.63;6.03;;;;;;;25.37;24.68;101096.53;1694956;83;22492;-64